Time;durP1;ratioP1;P1;durP2;ratioP2;P2;SDS_P1;SDS_P2;PMS_P1;PMS_P2;Temp;Humidity;BMP_temperature;BMP_pressure;BME280_temperature;BME280_humidity;BME280_pressure;Samples;Min_cycle;Max_cycle;Signal;HPM_P1;HPM_P2
2023/07/13 00:01:53;;;;;;;9.52;2.00;;;17.00;99.90;;;;;;4215411;28;20055;-84
2023/07/13 00:03:54;;;;;;;12.25;2.25;;;17.10;99.90;;;;;;4214625;28;20079;-85
2023/07/13 00:05:59;;;;;;;8.90;1.70;;;17.10;99.90;;;;;;4216451;28;20044;-85
2023/07/13 00:08:00;;;;;;;7.95;1.63;;;17.00;99.90;;;;;;4216542;28;20047;-85
2023/07/13 00:10:03;;;;;;;8.82;2.65;;;17.10;99.90;;;;;;4216596;28;20523;-83
2023/07/13 00:12:05;;;;;;;5.80;1.73;;;17.00;99.90;;;;;;4215781;28;20073;-84
2023/07/13 00:14:07;;;;;;;11.90;1.98;;;17.00;99.90;;;;;;4216325;28;20040;-84
2023/07/13 00:16:09;;;;;;;10.48;2.10;;;17.00;99.90;;;;;;4216895;28;20048;-84
2023/07/13 00:18:10;;;;;;;8.43;1.77;;;17.10;99.90;;;;;;4216122;28;20044;-83
2023/07/13 00:20:13;;;;;;;11.52;2.33;;;17.00;99.90;;;;;;4217119;28;20056;-84
2023/07/13 00:22:14;;;;;;;8.52;2.03;;;17.00;99.90;;;;;;4216157;28;20369;-84
2023/07/13 00:24:21;;;;;;;9.13;1.73;;;17.10;99.90;;;;;;4217739;28;20050;-84
2023/07/13 00:26:22;;;;;;;9.68;2.10;;;17.00;99.90;;;;;;4215872;28;20101;-84
2023/07/13 00:28:23;;;;;;;7.43;1.42;;;17.00;99.90;;;;;;4216122;28;20043;-84
2023/07/13 00:30:24;;;;;;;7.13;1.80;;;17.00;99.90;;;;;;4215951;28;20127;-84
2023/07/13 00:32:25;;;;;;;6.05;1.65;;;17.00;99.90;;;;;;4214895;28;20048;-84
2023/07/13 00:34:26;;;;;;;12.15;1.67;;;16.90;99.90;;;;;;4216903;28;20111;-85
2023/07/13 00:36:26;;;;;;;14.95;1.75;;;17.00;99.90;;;;;;4215871;28;20048;-85
2023/07/13 00:38:27;;;;;;;9.18;2.33;;;16.90;99.90;;;;;;4216538;28;20042;-84
2023/07/13 00:40:28;;;;;;;16.40;2.20;;;16.90;99.90;;;;;;4216601;28;20035;-84
2023/07/13 00:42:29;;;;;;;13.60;3.15;;;16.90;99.90;;;;;;4216011;28;20044;-84
2023/07/13 00:44:30;;;;;;;9.82;2.75;;;16.90;99.90;;;;;;4216734;28;20040;-84
2023/07/13 00:46:33;;;;;;;12.20;2.10;;;16.90;99.90;;;;;;4215413;28;20055;-84
2023/07/13 00:48:37;;;;;;;10.68;1.50;;;16.90;99.90;;;;;;4215690;28;20097;-84
2023/07/13 00:50:39;;;;;;;9.85;1.58;;;16.90;99.90;;;;;;4214228;28;20036;-84
2023/07/13 00:52:42;;;;;;;6.40;2.00;;;16.90;99.90;;;;;;4215854;28;20048;-84
2023/07/13 00:54:46;;;;;;;18.00;2.58;;;16.90;99.90;;;;;;4232367;28;20059;-84
2023/07/13 00:56:50;;;;;;;6.55;1.77;;;16.80;99.90;;;;;;4215250;28;20066;-83
2023/07/13 00:58:51;;;;;;;10.88;1.50;;;16.80;99.90;;;;;;4215359;28;20067;-84
2023/07/13 01:00:52;;;;;;;7.40;1.90;;;16.80;99.90;;;;;;4214967;28;20041;-84
2023/07/13 01:02:53;;;;;;;8.77;1.70;;;16.80;99.90;;;;;;4216593;28;20032;-84
2023/07/13 01:04:53;;;;;;;10.23;1.98;;;16.70;99.90;;;;;;4215612;28;20032;-84
2023/07/13 01:06:56;;;;;;;8.35;2.63;;;16.70;99.90;;;;;;4216421;28;20075;-85
2023/07/13 01:08:59;;;;;;;10.90;1.70;;;16.60;99.90;;;;;;4215601;28;20040;-85
2023/07/13 01:10:59;;;;;;;12.10;2.85;;;16.70;99.90;;;;;;4215397;28;20044;-85
2023/07/13 01:13:00;;;;;;;13.10;2.13;;;16.70;99.90;;;;;;4215418;28;20043;-85
2023/07/13 01:15:02;;;;;;;8.18;2.60;;;16.60;99.90;;;;;;4213088;28;20054;-84
2023/07/13 01:17:03;;;;;;;12.18;2.10;;;16.60;99.90;;;;;;4214989;28;20555;-86
2023/07/13 01:19:35;;;;;;;9.95;2.30;;;16.60;99.90;;;;;;4217755;28;20087;-85
2023/07/13 01:21:42;;;;;;;4.40;2.03;;;16.60;99.90;;;;;;4217735;28;20044;-85
2023/07/13 01:23:44;;;;;;;7.50;2.03;;;16.60;99.90;;;;;;4218261;28;20091;-85
2023/07/13 01:25:45;;;;;;;14.07;2.45;;;16.50;99.90;;;;;;4218029;28;20093;-85
2023/07/13 01:27:46;;;;;;;10.75;1.70;;;16.50;99.90;;;;;;4216940;28;20048;-85
2023/07/13 01:29:47;;;;;;;8.77;1.83;;;16.50;99.90;;;;;;4218317;28;20491;-85
2023/07/13 01:31:48;;;;;;;10.20;2.55;;;16.50;99.90;;;;;;4219105;28;20051;-85
2023/07/13 01:33:48;;;;;;;5.82;1.75;;;16.50;99.90;;;;;;4218694;28;20047;-85
2023/07/13 01:35:49;;;;;;;14.90;1.80;;;16.40;99.90;;;;;;4218682;28;20051;-85
2023/07/13 01:37:50;;;;;;;10.10;2.15;;;16.40;99.90;;;;;;4218343;28;20040;-85
2023/07/13 01:39:52;;;;;;;10.80;2.25;;;16.40;99.90;;;;;;4217623;28;20048;-86
2023/07/13 01:41:53;;;;;;;9.98;2.72;;;16.40;99.90;;;;;;4218560;28;20036;-85
2023/07/13 01:43:53;;;;;;;13.27;2.10;;;16.30;99.90;;;;;;4218012;28;20040;-85
2023/07/13 01:45:55;;;;;;;9.35;1.80;;;16.40;99.90;;;;;;4218758;28;20125;-85
2023/07/13 01:47:56;;;;;;;13.18;2.92;;;16.40;99.90;;;;;;4215902;28;20054;-85
2023/07/13 01:49:57;;;;;;;7.65;2.40;;;16.40;99.90;;;;;;4218347;28;20037;-85
2023/07/13 01:51:58;;;;;;;11.70;2.33;;;16.40;99.90;;;;;;4218053;28;20036;-85
2023/07/13 01:53:59;;;;;;;11.20;2.17;;;16.40;99.90;;;;;;4218217;28;20044;-85
2023/07/13 01:55:59;;;;;;;10.30;2.25;;;16.40;99.90;;;;;;4218107;28;20059;-85
2023/07/13 01:58:00;;;;;;;9.75;2.13;;;16.40;99.90;;;;;;4217418;28;20497;-85
2023/07/13 02:00:05;;;;;;;11.43;1.70;;;16.40;99.90;;;;;;4233618;28;20051;-85
2023/07/13 02:02:06;;;;;;;6.32;1.65;;;16.40;99.90;;;;;;4218167;28;20044;-85
2023/07/13 02:04:07;;;;;;;7.90;1.95;;;16.40;99.90;;;;;;4217975;28;20073;-85
2023/07/13 02:06:07;;;;;;;7.32;1.60;;;16.40;99.90;;;;;;4217870;28;20074;-85
2023/07/13 02:08:08;;;;;;;11.90;2.55;;;16.30;99.90;;;;;;4216929;28;20086;-85
2023/07/13 02:10:10;;;;;;;5.70;1.42;;;16.40;99.90;;;;;;4217753;28;20047;-85
2023/07/13 02:12:11;;;;;;;7.45;1.65;;;16.40;99.90;;;;;;4217104;28;20477;-85
2023/07/13 02:14:15;;;;;;;6.82;1.70;;;16.40;99.90;;;;;;4216919;28;20066;-86
2023/07/13 02:16:15;;;;;;;6.68;2.22;;;16.30;99.90;;;;;;4217057;28;20052;-84
2023/07/13 02:18:16;;;;;;;8.30;1.25;;;16.50;99.90;;;;;;4215708;28;20550;-85
2023/07/13 02:20:17;;;;;;;10.02;1.63;;;16.40;99.90;;;;;;4217091;28;20114;-85
2023/07/13 02:22:18;;;;;;;13.65;1.60;;;16.40;99.90;;;;;;4216411;28;20040;-84
2023/07/13 02:24:20;;;;;;;5.68;1.50;;;16.20;99.90;;;;;;4216903;28;20070;-84
2023/07/13 02:26:21;;;;;;;9.68;1.45;;;16.30;99.90;;;;;;4216805;28;20048;-85
2023/07/13 02:28:22;;;;;;;8.10;1.40;;;16.30;99.90;;;;;;4216503;28;20043;-85
2023/07/13 02:30:24;;;;;;;7.80;1.23;;;16.30;99.90;;;;;;4217343;28;20495;-84
2023/07/13 02:32:25;;;;;;;5.30;1.48;;;16.20;99.90;;;;;;4218782;28;20095;-85
2023/07/13 02:34:26;;;;;;;13.07;2.58;;;16.10;99.90;;;;;;4216028;28;20047;-84
2023/07/13 02:36:27;;;;;;;5.22;1.25;;;16.20;99.90;;;;;;4218635;28;20048;-84
2023/07/13 02:38:29;;;;;;;8.77;1.98;;;16.20;99.90;;;;;;4217635;28;20043;-85
2023/07/13 02:40:32;;;;;;;2.67;1.35;;;16.20;99.90;;;;;;4217971;28;20481;-85
2023/07/13 02:42:33;;;;;;;5.47;1.17;;;16.20;99.90;;;;;;4217798;28;20075;-85
2023/07/13 02:44:34;;;;;;;7.57;1.55;;;16.20;99.90;;;;;;4216926;28;20036;-84
2023/07/13 02:46:37;;;;;;;6.20;1.10;;;16.20;99.90;;;;;;4217312;28;20101;-84
2023/07/13 02:48:38;;;;;;;7.95;1.17;;;16.20;99.90;;;;;;4216491;28;20093;-85
2023/07/13 02:50:39;;;;;;;7.68;1.55;;;16.10;99.90;;;;;;4217152;28;20032;-84
2023/07/13 02:52:40;;;;;;;3.85;1.38;;;16.10;99.90;;;;;;4216183;28;20054;-84
2023/07/13 02:54:40;;;;;;;3.38;1.35;;;16.10;99.90;;;;;;4217001;28;20048;-85
2023/07/13 02:56:43;;;;;;;11.00;2.08;;;16.10;99.90;;;;;;4216627;28;20040;-85
2023/07/13 02:58:43;;;;;;;4.82;1.25;;;16.10;99.90;;;;;;4217271;28;20129;-85
2023/07/13 03:00:46;;;;;;;7.63;1.65;;;16.10;99.90;;;;;;4216116;28;20235;-85
2023/07/13 03:02:46;;;;;;;5.20;1.70;;;16.10;99.90;;;;;;4216531;28;20090;-85
2023/07/13 03:04:47;;;;;;;8.90;1.75;;;16.10;99.90;;;;;;4217192;28;20040;-85
2023/07/13 03:06:50;;;;;;;5.07;1.70;;;16.10;99.90;;;;;;4216582;28;20539;-85
2023/07/13 03:08:51;;;;;;;8.52;2.13;;;16.00;99.90;;;;;;4215227;28;20118;-85
2023/07/13 03:11:10;;;;;;;5.35;1.90;;;16.00;99.90;;;;;;4216320;28;20036;-84
2023/07/13 03:13:12;;;;;;;5.75;1.58;;;16.00;99.90;;;;;;4215587;28;20051;-85
2023/07/13 03:15:13;;;;;;;10.93;1.73;;;16.00;99.90;;;;;;4231573;28;20113;-85
2023/07/13 03:17:14;;;;;;;7.97;1.55;;;16.00;99.90;;;;;;4216055;28;20048;-85
2023/07/13 03:19:15;;;;;;;6.38;2.10;;;16.00;99.90;;;;;;4216498;28;20040;-84
2023/07/13 03:21:16;;;;;;;10.10;2.20;;;16.00;99.90;;;;;;4216596;28;20055;-84
2023/07/13 03:23:17;;;;;;;11.00;2.55;;;16.00;99.90;;;;;;4217179;28;20056;-85
2023/07/13 03:25:18;;;;;;;9.52;2.83;;;16.00;99.90;;;;;;4216212;28;20125;-85
2023/07/13 03:27:20;;;;;;;17.02;2.60;;;16.00;99.90;;;;;;4216842;28;20048;-85
2023/07/13 03:29:21;;;;;;;8.35;2.53;;;16.00;99.90;;;;;;4217365;28;20468;-84
2023/07/13 03:31:25;;;;;;;15.23;3.70;;;15.90;99.90;;;;;;4216493;28;20039;-85
2023/07/13 03:33:26;;;;;;;9.25;3.45;;;15.90;99.90;;;;;;4216896;28;20024;-85
2023/07/13 03:35:26;;;;;;;11.27;2.10;;;15.80;99.90;;;;;;4231862;28;20130;-85
2023/07/13 03:37:28;;;;;;;12.57;3.17;;;15.90;99.90;;;;;;4215585;28;20035;-85
2023/07/13 03:39:28;;;;;;;11.95;2.80;;;15.90;99.90;;;;;;4214889;28;20044;-84
2023/07/13 03:41:31;;;;;;;10.95;2.10;;;16.00;99.90;;;;;;4215730;28;20067;-85
2023/07/13 03:43:32;;;;;;;16.85;3.35;;;16.00;99.90;;;;;;4215547;28;20044;-85
2023/07/13 03:45:32;;;;;;;8.90;2.35;;;16.00;99.90;;;;;;4216408;28;20047;-84
2023/07/13 03:47:33;;;;;;;11.48;2.25;;;16.00;99.90;;;;;;4216560;28;20101;-85
2023/07/13 03:49:34;;;;;;;8.23;2.67;;;16.00;99.90;;;;;;4215989;28;20040;-85
2023/07/13 03:51:35;;;;;;;6.90;2.20;;;16.00;99.90;;;;;;4217036;28;20567;-85
2023/07/13 03:53:39;;;;;;;9.13;2.20;;;16.10;99.90;;;;;;4216475;28;20044;-85
2023/07/13 03:55:39;;;;;;;14.13;2.33;;;16.10;99.90;;;;;;4216984;28;20051;-84
2023/07/13 03:57:40;;;;;;;9.65;2.40;;;16.10;99.90;;;;;;4215714;28;20408;-84
2023/07/13 03:59:41;;;;;;;12.77;2.22;;;16.10;99.90;;;;;;4216358;28;20040;-85
2023/07/13 04:01:43;;;;;;;9.07;3.65;;;16.10;99.90;;;;;;4216086;28;20545;-85
2023/07/13 04:03:46;;;;;;;12.25;2.47;;;16.10;99.90;;;;;;4215624;28;20036;-84
2023/07/13 04:05:47;;;;;;;11.20;2.30;;;16.10;99.90;;;;;;4216951;28;20476;-84
2023/07/13 04:07:49;;;;;;;8.68;2.13;;;16.10;99.90;;;;;;4216166;28;20047;-85
2023/07/13 04:09:50;;;;;;;20.67;3.30;;;16.00;99.90;;;;;;4215577;28;20036;-85
2023/07/13 04:11:52;;;;;;;7.78;1.90;;;16.00;99.90;;;;;;4231368;28;20077;-85
2023/07/13 04:13:53;;;;;;;7.93;2.22;;;16.00;99.90;;;;;;4215948;28;20051;-85
2023/07/13 04:15:54;;;;;;;10.27;2.20;;;15.60;99.90;;;;;;4215990;28;20040;-85
2023/07/13 04:17:54;;;;;;;7.25;2.70;;;16.00;99.90;;;;;;4215949;28;20131;-85
2023/07/13 04:19:55;;;;;;;13.50;2.30;;;16.00;99.90;;;;;;4215486;28;20036;-84
2023/07/13 04:21:56;;;;;;;13.50;1.80;;;16.00;99.90;;;;;;4230515;28;20539;-84
2023/07/13 04:23:58;;;;;;;12.25;2.10;;;16.00;99.90;;;;;;4214369;28;20512;-84
2023/07/13 04:25:58;;;;;;;13.73;2.28;;;15.90;99.90;;;;;;4215403;28;20126;-85
2023/07/13 04:27:59;;;;;;;14.32;2.40;;;15.90;99.90;;;;;;4215274;28;20044;-84
2023/07/13 04:30:00;;;;;;;16.33;3.03;;;15.90;99.90;;;;;;4215290;28;20492;-85
2023/07/13 04:32:01;;;;;;;13.27;3.15;;;15.90;99.90;;;;;;4215564;28;20051;-85
2023/07/13 04:34:02;;;;;;;6.25;2.08;;;15.90;99.90;;;;;;4215025;28;20044;-85
2023/07/13 04:36:05;;;;;;;13.77;2.92;;;16.00;99.90;;;;;;4215800;28;20048;-85
2023/07/13 04:38:07;;;;;;;12.60;2.20;;;16.00;99.90;;;;;;4215714;28;20101;-85
2023/07/13 04:40:11;;;;;;;9.68;2.72;;;15.90;99.90;;;;;;4215186;28;20544;-85
2023/07/13 04:42:12;;;;;;;17.83;3.83;;;16.00;99.90;;;;;;4215645;28;20047;-85
2023/07/13 04:44:13;;;;;;;16.95;3.35;;;16.00;99.90;;;;;;4215256;28;20064;-85
2023/07/13 04:46:17;;;;;;;14.73;3.25;;;16.00;99.90;;;;;;4215775;28;20119;-85
2023/07/13 04:48:18;;;;;;;13.25;2.65;;;16.00;99.90;;;;;;4215570;28;20480;-84
2023/07/13 04:50:22;;;;;;;12.25;2.30;;;16.00;99.90;;;;;;4231207;28;20093;-84
2023/07/13 04:52:23;;;;;;;9.25;2.40;;;16.00;99.90;;;;;;4217953;28;20089;-85
2023/07/13 04:54:24;;;;;;;13.73;2.50;;;16.10;99.90;;;;;;4218075;28;20052;-85
2023/07/13 04:56:25;;;;;;;8.52;2.22;;;16.10;99.90;;;;;;4219354;28;20055;-84
2023/07/13 04:58:27;;;;;;;8.77;3.25;;;16.10;99.90;;;;;;4218408;28;20047;-84
2023/07/13 05:00:28;;;;;;;7.97;2.30;;;16.10;99.90;;;;;;4219163;28;20392;-85
2023/07/13 05:02:31;;;;;;;13.27;3.15;;;16.20;99.90;;;;;;4218249;28;20059;-84
2023/07/13 05:04:32;;;;;;;11.82;3.17;;;16.20;99.90;;;;;;4219104;28;20043;-85
2023/07/13 05:06:33;;;;;;;9.52;2.10;;;16.20;99.90;;;;;;4219383;28;20040;-85
2023/07/13 05:08:34;;;;;;;14.85;3.22;;;16.30;99.90;;;;;;4218283;28;20119;-85
2023/07/13 05:10:35;;;;;;;14.27;2.30;;;16.30;99.90;;;;;;4217655;28;20109;-84
2023/07/13 05:12:36;;;;;;;15.15;2.50;;;16.40;99.90;;;;;;4218919;28;20449;-84
2023/07/13 05:14:37;;;;;;;11.05;3.30;;;16.40;99.90;;;;;;4218926;28;20040;-84
2023/07/13 05:16:38;;;;;;;13.05;2.45;;;16.40;99.90;;;;;;4218474;28;20036;-85
2023/07/13 05:18:39;;;;;;;17.25;2.63;;;16.40;99.90;;;;;;4219138;28;20537;-85
2023/07/13 05:20:40;;;;;;;12.75;2.38;;;16.50;99.90;;;;;;4218619;28;20040;-85
2023/07/13 05:22:41;;;;;;;15.85;3.20;;;16.50;99.90;;;;;;4218515;28;20047;-84
2023/07/13 05:24:42;;;;;;;7.90;2.03;;;16.60;99.90;;;;;;4218145;28;20423;-84
2023/07/13 05:26:43;;;;;;;10.52;2.78;;;16.60;99.90;;;;;;4218121;28;20039;-84
2023/07/13 05:28:44;;;;;;;18.05;3.17;;;16.60;99.90;;;;;;4219112;28;20036;-85
2023/07/13 05:30:49;;;;;;;13.77;2.80;;;16.70;99.90;;;;;;4218000;28;20044;-84
2023/07/13 05:32:51;;;;;;;9.80;1.88;;;16.70;99.90;;;;;;4218640;28;20043;-84
2023/07/13 05:34:52;;;;;;;9.43;2.45;;;16.80;99.90;;;;;;4218083;28;20071;-84
2023/07/13 05:36:53;;;;;;;12.65;3.13;;;16.80;99.90;;;;;;4216931;28;20044;-84
2023/07/13 05:38:53;;;;;;;13.63;2.05;;;16.90;99.90;;;;;;4217556;28;20054;-84
2023/07/13 05:40:55;;;;;;;11.32;3.28;;;17.00;99.90;;;;;;4217295;28;20059;-84
2023/07/13 05:42:56;;;;;;;13.93;2.72;;;17.00;99.90;;;;;;4218139;28;20120;-84
2023/07/13 05:44:57;;;;;;;5.82;1.80;;;17.10;99.90;;;;;;4216418;28;20048;-84
2023/07/13 05:46:58;;;;;;;9.23;1.85;;;17.10;99.90;;;;;;4217779;28;20053;-84
2023/07/13 05:49:00;;;;;;;9.35;2.50;;;17.10;99.90;;;;;;4217371;28;20115;-84
2023/07/13 05:51:01;;;;;;;5.97;2.10;;;17.20;99.90;;;;;;4218115;28;20068;-85
2023/07/13 05:53:01;;;;;;;7.40;1.80;;;17.30;99.90;;;;;;4217517;28;20079;-84
2023/07/13 05:55:03;;;;;;;9.43;1.85;;;17.30;99.90;;;;;;4218303;28;20040;-84
2023/07/13 05:57:03;;;;;;;11.43;1.90;;;17.30;99.90;;;;;;4219155;28;20067;-84
2023/07/13 05:59:04;;;;;;;8.55;2.00;;;17.30;99.90;;;;;;4217902;28;20040;-84
2023/07/13 06:01:11;;;;;;;9.10;2.60;;;17.40;99.90;;;;;;4219382;28;20127;-84
2023/07/13 06:03:11;;;;;;;10.48;3.53;;;17.50;99.90;;;;;;4216850;28;20055;-84
2023/07/13 06:05:12;;;;;;;7.65;1.88;;;17.50;99.90;;;;;;4216000;28;20415;-85
2023/07/13 06:07:13;;;;;;;11.23;2.08;;;17.60;99.90;;;;;;4217527;28;20488;-85
2023/07/13 06:09:13;;;;;;;9.73;2.00;;;17.70;99.90;;;;;;4216520;28;20101;-85
2023/07/13 06:11:18;;;;;;;7.18;2.55;;;17.70;99.90;;;;;;4218145;28;20135;-86
2023/07/13 06:13:20;;;;;;;6.20;1.80;;;17.80;99.90;;;;;;4218396;28;20044;-84
2023/07/13 06:15:21;;;;;;;7.10;1.70;;;17.80;99.90;;;;;;4218085;28;20518;-85
2023/07/13 06:17:21;;;;;;;8.38;1.70;;;17.80;99.90;;;;;;4218151;28;20129;-84
2023/07/13 06:19:22;;;;;;;11.25;2.30;;;17.90;99.90;;;;;;4217816;28;20123;-84
2023/07/13 06:21:23;;;;;;;4.88;1.65;;;17.90;99.90;;;;;;4216146;28;20097;-84
2023/07/13 06:23:24;;;;;;;4.55;1.60;;;18.00;99.90;;;;;;4217994;28;20052;-84
2023/07/13 06:25:26;;;;;;;6.20;1.67;;;18.10;99.90;;;;;;4218555;28;20094;-84
2023/07/13 06:27:27;;;;;;;10.50;2.42;;;18.10;99.90;;;;;;4216549;28;20055;-84
2023/07/13 06:29:28;;;;;;;8.98;2.78;;;18.20;99.90;;;;;;4218337;28;20400;-85
2023/07/13 06:31:29;;;;;;;13.07;2.00;;;18.30;99.90;;;;;;4217817;28;20043;-84
2023/07/13 06:33:29;;;;;;;12.80;2.60;;;18.40;99.90;;;;;;4217779;28;20048;-84
2023/07/13 06:35:30;;;;;;;9.52;1.50;;;18.40;99.90;;;;;;4217756;28;20515;-85
2023/07/13 06:37:33;;;;;;;8.40;1.80;;;18.50;99.90;;;;;;4217834;28;20047;-84
2023/07/13 06:39:34;;;;;;;10.70;2.03;;;18.60;99.90;;;;;;4218165;28;20040;-85
2023/07/13 06:41:34;;;;;;;9.00;1.52;;;18.70;99.90;;;;;;4217890;28;20046;-84
2023/07/13 06:43:36;;;;;;;7.45;2.40;;;18.60;99.90;;;;;;4218116;28;20113;-84
2023/07/13 06:45:45;;;;;;;8.50;1.92;;;18.70;99.90;;;;;;4217092;28;20044;-84
2023/07/13 06:47:46;;;;;;;12.65;1.58;;;18.70;99.90;;;;;;4217463;28;20032;-84
2023/07/13 06:49:47;;;;;;;11.45;1.70;;;18.80;99.90;;;;;;4217845;28;20363;-85
2023/07/13 06:51:48;;;;;;;10.20;2.03;;;19.00;99.90;;;;;;4217710;28;20093;-84
2023/07/13 06:53:50;;;;;;;6.82;1.45;;;19.00;99.90;;;;;;4217910;28;20048;-85
2023/07/13 06:55:51;;;;;;;6.95;2.40;;;19.00;99.90;;;;;;4217842;28;20067;-84
2023/07/13 06:57:52;;;;;;;5.10;1.20;;;18.90;99.90;;;;;;4218224;28;20032;-84
2023/07/13 06:59:52;;;;;;;6.35;2.03;;;18.90;99.90;;;;;;4216601;28;20082;-85
2023/07/13 07:01:53;;;;;;;4.38;1.48;;;18.90;99.90;;;;;;4218127;28;20075;-84
2023/07/13 07:03:54;;;;;;;10.68;1.92;;;18.90;99.90;;;;;;4216511;28;20060;-85
2023/07/13 07:06:18;;;;;;;6.03;1.13;;;18.90;99.90;;;;;;4217337;28;20484;-84
2023/07/13 07:08:19;;;;;;;4.18;1.15;;;19.10;99.90;;;;;;4219075;28;20050;-85
2023/07/13 07:10:21;;;;;;;7.40;1.30;;;19.20;99.90;;;;;;4217285;28;20083;-83
2023/07/13 07:12:21;;;;;;;10.45;1.52;;;19.30;99.90;;;;;;4217946;28;20032;-84
2023/07/13 07:14:22;;;;;;;4.53;1.17;;;19.40;99.90;;;;;;4217533;28;20073;-84
2023/07/13 07:16:25;;;;;;;5.57;1.40;;;19.60;99.90;;;;;;4218448;28;20044;-84
2023/07/13 07:18:25;;;;;;;5.38;1.33;;;19.80;99.90;;;;;;4218431;28;20040;-84
2023/07/13 07:20:26;;;;;;;6.68;1.52;;;19.90;99.90;;;;;;4217909;28;20054;-85
2023/07/13 07:22:28;;;;;;;4.93;1.20;;;20.10;99.90;;;;;;4217250;28;20178;-84
2023/07/13 07:24:29;;;;;;;4.18;1.08;;;20.10;99.90;;;;;;4219074;28;20040;-84
2023/07/13 07:26:30;;;;;;;4.40;1.33;;;20.00;99.90;;;;;;4218952;28;20054;-86
2023/07/13 07:28:31;;;;;;;7.18;1.70;;;19.90;99.90;;;;;;4218149;28;20036;-84
2023/07/13 07:30:31;;;;;;;5.53;1.38;;;19.80;99.90;;;;;;4217792;28;20154;-84
2023/07/13 07:32:32;;;;;;;3.72;1.13;;;19.70;99.90;;;;;;4216701;28;20517;-84
2023/07/13 07:34:33;;;;;;;4.40;1.38;;;19.60;99.90;;;;;;4215394;28;20511;-84
2023/07/13 07:36:34;;;;;;;3.63;1.05;;;19.60;99.90;;;;;;4217375;28;20094;-84
2023/07/13 07:38:34;;;;;;;4.97;1.40;;;19.60;99.90;;;;;;4216850;28;20434;-84
2023/07/13 07:40:46;;;;;;;6.03;1.77;;;19.90;99.90;;;;;;4234296;28;20081;-84
2023/07/13 07:42:48;;;;;;;3.38;0.90;;;20.00;99.90;;;;;;4217111;28;20052;-83
2023/07/13 07:44:49;;;;;;;2.88;1.30;;;20.20;99.90;;;;;;4219184;28;20541;-84
2023/07/13 07:46:50;;;;;;;3.40;0.93;;;20.30;99.90;;;;;;4217916;28;20051;-84
2023/07/13 07:48:51;;;;;;;1.85;0.73;;;20.30;99.90;;;;;;4217105;28;20040;-83
2023/07/13 07:50:53;;;;;;;4.40;1.23;;;20.20;99.90;;;;;;4232958;28;20518;-83
2023/07/13 07:52:57;;;;;;;3.47;1.63;;;20.30;99.90;;;;;;4218206;28;20539;-84
2023/07/13 07:54:59;;;;;;;3.55;0.95;;;20.40;99.90;;;;;;4216516;28;20040;-84
2023/07/13 07:57:00;;;;;;;2.75;1.10;;;20.40;99.90;;;;;;4218464;28;20036;-84
2023/07/13 07:59:00;;;;;;;3.17;0.85;;;20.40;99.90;;;;;;4219182;28;20048;-84
2023/07/13 08:01:06;;;;;;;6.68;1.50;;;20.30;99.90;;;;;;4218162;28;20044;-84
2023/07/13 08:03:07;;;;;;;3.35;1.25;;;20.20;99.90;;;;;;4216418;28;20072;-84
2023/07/13 08:05:09;;;;;;;2.33;1.00;;;20.00;99.90;;;;;;4216678;28;20032;-84
2023/07/13 08:07:11;;;;;;;3.53;1.20;;;19.90;99.90;;;;;;4216295;28;20043;-84
2023/07/13 08:09:12;;;;;;;7.15;1.30;;;19.80;99.90;;;;;;4215454;28;20036;-83
2023/07/13 08:11:14;;;;;;;12.32;1.27;;;19.70;99.90;;;;;;4216259;28;20104;-83
2023/07/13 08:13:15;;;;;;;6.50;1.20;;;19.60;99.90;;;;;;4216273;28;20048;-84
2023/07/13 08:15:17;;;;;;;6.28;1.10;;;19.50;99.90;;;;;;4218006;28;20381;-84
2023/07/13 08:17:17;;;;;;;3.78;1.30;;;19.30;99.90;;;;;;4216136;28;20048;-84
2023/07/13 08:19:18;;;;;;;4.18;1.30;;;19.30;99.90;;;;;;4218013;28;20078;-84
2023/07/13 08:21:22;;;;;;;3.08;1.10;;;19.20;99.90;;;;;;4217391;28;20079;-84
2023/07/13 08:23:23;;;;;;;2.95;0.88;;;19.30;99.90;;;;;;4216327;28;20059;-85
2023/07/13 08:25:24;;;;;;;1.02;0.70;;;19.40;99.90;;;;;;4217701;28;20051;-84
2023/07/13 08:27:27;;;;;;;2.33;0.63;;;19.40;99.90;;;;;;4216105;28;20080;-85
2023/07/13 08:29:31;;;;;;;2.30;1.00;;;19.50;99.90;;;;;;4217232;28;20044;-84
2023/07/13 08:31:32;;;;;;;1.35;0.65;;;19.60;99.90;;;;;;4217148;28;20048;-87
2023/07/13 08:33:35;;;;;;;3.22;0.70;;;19.60;99.90;;;;;;4216151;28;20382;-86
2023/07/13 08:35:38;;;;;;;4.25;1.00;;;19.60;99.90;;;;;;4216132;28;20048;-84
2023/07/13 08:37:39;;;;;;;3.63;0.77;;;19.60;99.90;;;;;;4215920;28;20488;-85
2023/07/13 08:39:40;;;;;;;5.88;1.20;;;19.50;99.90;;;;;;4216134;28;20067;-85
2023/07/13 08:41:41;;;;;;;4.93;1.40;;;19.40;99.90;;;;;;4216305;28;20099;-84
2023/07/13 08:43:46;;;;;;;3.85;1.27;;;19.30;99.90;;;;;;4216106;28;20481;-84
2023/07/13 08:45:52;;;;;;;6.47;1.13;;;19.30;99.90;;;;;;4217458;28;20044;-84
2023/07/13 08:48:02;;;;;;;6.03;1.10;;;19.30;99.90;;;;;;4216355;28;20055;-84
2023/07/13 08:50:04;;;;;;;3.50;1.17;;;19.20;99.90;;;;;;4216879;28;20104;-84
2023/07/13 08:52:12;;;;;;;3.67;1.20;;;19.20;99.90;;;;;;4216652;28;20040;-84
2023/07/13 08:54:27;;;;;;;5.00;1.90;;;19.10;99.90;;;;;;4216461;28;20511;-85
2023/07/13 08:56:30;;;;;;;8.88;2.53;;;19.10;99.90;;;;;;4216093;28;20517;-85
2023/07/13 08:58:33;;;;;;;6.80;1.75;;;19.10;99.90;;;;;;4215706;28;20036;-85
2023/07/13 09:01:22;;;;;;;4.47;1.30;;;19.30;99.90;;;;;;4216058;28;20067;-84
2023/07/13 09:03:27;;;;;;;5.63;1.80;;;19.50;99.90;;;;;;4210870;28;20107;-84
2023/07/13 09:05:40;;;;;;;4.38;1.10;;;19.70;99.90;;;;;;4216235;28;20047;-84
2023/07/13 09:08:01;;;;;;;7.00;1.38;;;19.80;99.90;;;;;;4216632;28;20044;-84
2023/07/13 09:10:17;;;;;;;6.60;1.63;;;19.80;99.90;;;;;;4215988;28;20048;-84
2023/07/13 09:12:35;;;;;;;2.00;1.48;;;20.00;99.90;;;;;;4215083;28;20070;-84
2023/07/13 09:14:50;;;;;;;3.13;1.42;;;20.00;99.90;;;;;;4215746;28;20076;-84
2023/07/13 09:16:51;;;;;;;8.45;1.38;;;20.00;99.90;;;;;;4216189;28;20067;-84
2023/07/13 09:18:56;;;;;;;5.20;1.50;;;19.90;99.90;;;;;;4214815;28;20048;-85
2023/07/13 09:21:11;;;;;;;6.70;1.60;;;19.90;99.90;;;;;;4215630;28;20048;-84
2023/07/13 09:23:19;;;;;;;7.45;1.38;;;19.80;99.90;;;;;;4215909;28;20167;-84
2023/07/13 09:25:30;;;;;;;5.07;1.45;;;19.70;99.90;;;;;;4215189;28;20451;-84
2023/07/13 09:27:39;;;;;;;5.18;1.80;;;19.60;99.90;;;;;;4215836;28;20044;-84
2023/07/13 09:29:44;;;;;;;3.70;1.67;;;19.80;99.90;;;;;;4216528;28;20047;-85
2023/07/13 09:31:50;;;;;;;6.50;1.35;;;20.20;99.90;;;;;;4215478;28;20052;-84
2023/07/13 09:33:51;;;;;;;12.05;1.33;;;20.60;99.90;;;;;;4216022;28;20515;-84
2023/07/13 09:35:53;;;;;;;3.85;1.38;;;20.80;99.90;;;;;;4215504;28;20115;-84
2023/07/13 09:37:58;;;;;;;7.53;1.48;;;21.10;99.90;;;;;;4215987;28;20051;-84
2023/07/13 09:40:01;;;;;;;3.63;1.23;;;21.50;99.90;;;;;;4219000;28;20050;-84
2023/07/13 09:42:10;;;;;;;6.10;1.42;;;21.50;99.90;;;;;;4218422;28;20118;-85
2023/07/13 09:44:15;;;;;;;4.03;1.52;;;21.60;99.90;;;;;;4218374;28;20090;-85
2023/07/13 09:46:22;;;;;;;4.90;0.98;;;21.60;99.90;;;;;;4217865;28;20036;-84
2023/07/13 09:48:24;;;;;;;4.35;1.20;;;21.50;99.90;;;;;;4220732;28;20044;-84
2023/07/13 09:50:25;;;;;;;3.13;0.93;;;21.40;99.90;;;;;;4219004;28;20059;-84
2023/07/13 09:52:27;;;;;;;3.72;1.27;;;21.20;99.90;;;;;;4217936;28;20040;-84
2023/07/13 09:54:37;;;;;;;5.05;1.30;;;21.20;99.90;;;;;;4219045;28;20839;-85
2023/07/13 09:56:38;;;;;;;2.40;1.00;;;21.40;99.90;;;;;;4224885;28;20051;-84
2023/07/13 09:58:40;;;;;;;7.80;1.05;;;21.60;99.90;;;;;;4221402;28;20040;-84
2023/07/13 10:01:04;;;;;;;2.20;0.95;;;21.60;99.90;;;;;;4220844;28;20115;-84
2023/07/13 10:03:21;;;;;;;5.20;1.67;;;21.50;99.90;;;;;;4221292;28;20044;-84
2023/07/13 10:05:24;;;;;;;2.80;0.85;;;21.30;99.90;;;;;;4218961;28;20426;-84
2023/07/13 10:07:27;;;;;;;4.28;0.70;;;21.20;99.90;;;;;;4221124;28;20062;-85
2023/07/13 10:09:28;;;;;;;2.25;0.80;;;21.20;99.90;;;;;;4223560;28;20494;-85
2023/07/13 10:11:30;;;;;;;3.85;0.80;;;21.00;99.90;;;;;;4223205;28;20051;-84
2023/07/13 10:13:39;;;;;;;2.60;0.75;;;20.90;99.90;;;;;;4219215;28;20086;-84
2023/07/13 10:15:42;;;;;;;3.47;0.93;;;20.80;99.90;;;;;;4218528;28;20044;-84
2023/07/13 10:17:47;;;;;;;2.80;0.80;;;21.00;99.90;;;;;;4223449;28;20040;-85
2023/07/13 10:19:49;;;;;;;2.40;1.17;;;21.30;99.90;;;;;;4221519;28;20485;-84
2023/07/13 10:21:59;;;;;;;7.35;1.00;;;21.70;99.90;;;;;;4220186;28;20079;-85
2023/07/13 10:24:22;;;;;;;1.52;0.70;;;21.90;99.90;;;;;;4220475;28;20084;-85
2023/07/13 10:26:31;;;;;;;2.88;0.63;;;21.90;99.90;;;;;;4218490;28;20536;-85
2023/07/13 10:28:34;;;;;;;;;;;21.90;99.90;;;;;;4217568;28;20036;-84
2023/07/13 10:30:40;;;;;;;2.78;1.00;;;22.30;99.90;;;;;;4219371;28;19927;-84
2023/07/13 10:32:42;;;;;;;2.00;0.70;;;22.80;99.90;;;;;;4216475;28;20068;-84
2023/07/13 10:34:46;;;;;;;3.10;0.47;;;23.20;99.90;;;;;;4218278;28;20408;-85
2023/07/13 10:36:48;;;;;;;3.47;0.77;;;23.40;99.90;;;;;;4218106;28;20132;-84